createdAt,value
2018-06-29T13:26:39.149Z,3.30
2018-06-29T13:29:06.920Z,2.80
2018-06-29T13:31:34.694Z,2.63
2018-06-29T13:34:02.610Z,3.10
2018-06-29T13:36:30.840Z,2.80
2018-06-29T13:38:58.687Z,3.00
2018-06-29T13:41:26.523Z,2.70
2018-06-29T13:43:57.540Z,2.80
2018-06-29T13:46:25.699Z,2.97
2018-06-29T13:48:53.615Z,3.20
2018-06-29T13:51:22.284Z,3.23
2018-06-29T13:53:50.820Z,3.10
2018-06-29T13:56:19.952Z,2.80
2018-06-29T13:58:47.827Z,3.40
2018-06-29T14:01:15.609Z,3.13
2018-06-29T14:03:43.399Z,2.80
2018-06-29T14:06:11.212Z,3.03
2018-06-29T14:08:40.224Z,2.77
2018-06-29T14:11:09.080Z,3.03
2018-06-29T14:13:37.376Z,3.57
2018-06-29T14:16:05.246Z,3.30
2018-06-29T14:18:33.037Z,2.70
2018-06-29T14:21:00.841Z,3.73
2018-06-29T14:23:28.552Z,3.27
2018-06-29T14:25:56.221Z,2.60
2018-06-29T14:28:23.990Z,3.00
2018-06-29T14:30:51.848Z,2.57
2018-06-29T14:33:19.630Z,2.57
2018-06-29T14:35:47.568Z,3.03
2018-06-29T14:38:15.417Z,2.67
2018-06-29T14:40:43.465Z,2.83
2018-06-29T14:43:11.228Z,2.93
2018-06-29T14:45:39.114Z,2.77
2018-06-29T14:48:07.124Z,2.70
2018-06-29T14:50:35.297Z,3.07
2018-06-29T14:53:03.353Z,2.53
2018-06-29T14:55:31.423Z,2.43
2018-06-29T14:57:59.242Z,3.17
2018-06-29T15:00:27.139Z,2.83
2018-06-29T15:02:54.929Z,2.70
2018-06-29T15:05:22.782Z,2.53
2018-06-29T15:07:52.393Z,2.27
2018-06-29T15:10:20.501Z,3.03
2018-06-29T15:12:48.397Z,3.43
2018-06-29T15:15:16.382Z,2.93
2018-06-29T15:27:35.301Z,2.80
2018-06-29T15:30:03.656Z,2.37
2018-06-29T15:32:32.904Z,2.50
2018-06-29T16:09:26.742Z,3.60
2018-06-29T16:11:54.855Z,2.73
2018-06-29T16:14:22.885Z,2.00
2018-06-29T16:16:52.197Z,2.10
2018-06-29T16:26:41.567Z,2.40
2018-06-29T16:29:09.545Z,2.30
2018-06-29T16:31:37.274Z,2.23
2018-06-29T16:34:04.931Z,2.20
2018-06-29T16:36:32.724Z,2.50
2018-06-29T16:39:00.501Z,2.73
2018-06-29T16:53:43.863Z,2.20
2018-06-29T16:56:11.887Z,2.30
2018-06-29T16:58:39.748Z,1.97
2018-06-29T17:35:33.227Z,1.55
2018-06-29T19:13:51.871Z,1.57
2018-06-29T19:16:20.855Z,1.63
2018-06-29T19:18:49.400Z,2.07
2018-06-29T19:43:23.246Z,1.70
2018-06-29T19:45:51.254Z,1.70
2018-06-29T19:48:19.124Z,1.77
2018-06-29T19:50:47.012Z,1.30
2018-06-29T19:53:15.472Z,1.23
2018-06-29T19:55:43.348Z,1.30
2018-06-29T19:58:11.424Z,1.30
2018-06-29T20:00:39.177Z,1.30
2018-06-29T20:03:07.151Z,1.30
2018-06-29T20:05:35.172Z,1.40
2018-06-29T20:08:03.213Z,1.13
2018-06-29T20:10:31.273Z,1.10
2018-06-29T20:12:59.011Z,1.77
2018-06-29T20:15:26.707Z,1.83
2018-06-29T20:17:54.519Z,1.60
2018-06-29T20:20:23.269Z,1.00
2018-06-29T20:22:51.350Z,2.93
2018-06-29T20:25:19.392Z,1.60
2018-06-29T20:27:47.447Z,1.40
2018-06-29T20:30:15.447Z,1.77
2018-06-29T20:32:43.429Z,1.53
2018-06-29T20:35:11.131Z,1.13
2018-06-29T20:37:42.194Z,1.50
2018-06-29T20:40:12.490Z,1.90
2018-06-29T20:42:42.222Z,1.47
2018-06-29T20:45:10.200Z,1.60
2018-06-29T20:47:38.032Z,1.37
2018-06-29T20:50:05.865Z,1.33
2018-06-29T20:52:34.280Z,1.60
2018-06-29T20:55:02.730Z,1.50
2018-06-29T20:57:30.548Z,1.80
2018-06-29T21:00:02.130Z,2.27
2018-06-29T21:02:31.390Z,1.40
2018-06-29T21:05:00.502Z,2.37
2018-06-29T21:07:28.868Z,2.67
2018-06-29T21:09:57.957Z,2.10
2018-06-29T21:12:27.866Z,3.20
2018-06-29T21:14:55.718Z,3.13
2018-06-29T21:17:25.039Z,2.50
2018-06-29T21:19:52.999Z,2.13
2018-06-29T21:22:22.653Z,1.80
2018-06-29T21:24:52.591Z,1.27
2018-06-29T21:27:20.624Z,1.60
2018-06-29T21:29:50.940Z,1.33
2018-06-29T21:32:19.625Z,1.90
2018-06-29T21:34:48.698Z,1.10
2018-06-29T21:37:18.117Z,1.33
2018-06-29T21:39:52.638Z,1.33
2018-06-29T21:42:21.344Z,1.03
2018-06-29T21:44:50.573Z,1.20
2018-06-29T21:47:18.373Z,1.50
2018-06-29T21:49:46.316Z,1.27
2018-06-29T21:52:14.280Z,1.20
2018-06-29T21:54:42.268Z,1.43
2018-06-29T21:57:10.986Z,1.57
2018-06-29T21:59:39.026Z,1.17
2018-06-29T22:02:06.946Z,1.07
2018-06-29T22:04:34.618Z,1.47
2018-06-29T22:07:02.633Z,1.63
2018-06-29T22:09:33.884Z,1.30
2018-06-29T22:12:03.613Z,1.20
2018-06-29T22:14:31.685Z,1.33
2018-06-29T22:17:00.357Z,1.33
2018-06-29T22:19:30.392Z,1.40
2018-06-29T22:21:59.295Z,1.60
2018-06-29T22:24:27.712Z,1.23
2018-06-29T22:26:57.434Z,1.10
2018-06-29T22:29:25.623Z,1.40
2018-06-29T22:31:54.130Z,1.10
2018-06-29T22:34:22.943Z,2.00
2018-06-29T22:36:50.964Z,1.20
2018-06-29T22:39:24.034Z,1.40
2018-06-29T22:41:52.408Z,1.43
2018-06-29T22:44:20.287Z,1.33
2018-06-29T22:46:50.056Z,1.37
2018-06-29T22:49:18.833Z,1.70
2018-06-29T22:51:46.967Z,1.30
2018-06-29T22:54:14.966Z,1.70
2018-06-29T22:56:42.957Z,1.27
2018-06-29T22:59:12.202Z,1.40
2018-06-29T23:01:40.057Z,1.70
2018-06-29T23:04:11.069Z,1.67
2018-06-29T23:06:38.740Z,1.90
